EGXU - Linton-On-Ouse
Distance from station: E 5mi, 14km
Updated: 07/15/2018 1:50pm
Clear
Clear
 Wind from WNW
Wind: WNW 8 mph , 13 km/h
Temperature: 68°F , 20°C
Dew Point: 55°F , 13°C
Humidity: 64%
Barometer: 29.91 inHg , 1013 hPa
Clouds: Clear
Visibility: 6 miles , 10 km
2018/07/15 20:50 EGXU 152050Z AUTO 30007KT 9999 // NCD 20/13 Q1013